sensor_id;sensor_type;location;lat;lon;timestamp;temperature;humidity
26703;DHT22;14316;51.074;3.704;2023-08-20T00:00:25;20.20;99.90
26703;DHT22;14316;51.074;3.704;2023-08-20T00:02:58;20.40;99.90
26703;DHT22;14316;51.074;3.704;2023-08-20T00:05:25;20.40;99.90
26703;DHT22;14316;51.074;3.704;2023-08-20T00:07:51;20.30;99.90
26703;DHT22;14316;51.074;3.704;2023-08-20T00:10:16;20.20;99.90
26703;DHT22;14316;51.074;3.704;2023-08-20T00:12:43;20.20;99.90
26703;DHT22;14316;51.074;3.704;2023-08-20T00:15:08;20.30;99.90
26703;DHT22;14316;51.074;3.704;2023-08-20T00:17:36;20.30;99.90
26703;DHT22;14316;51.074;3.704;2023-08-20T00:20:04;20.30;99.90
26703;DHT22;14316;51.074;3.704;2023-08-20T00:22:36;20.20;99.90
26703;DHT22;14316;51.074;3.704;2023-08-20T00:25:02;20.10;99.90
26703;DHT22;14316;51.074;3.704;2023-08-20T00:27:29;20.10;99.90
26703;DHT22;14316;51.074;3.704;2023-08-20T00:29:55;20.10;99.90
26703;DHT22;14316;51.074;3.704;2023-08-20T00:32:21;20.10;99.90
26703;DHT22;14316;51.074;3.704;2023-08-20T00:34:47;20.00;99.90
26703;DHT22;14316;51.074;3.704;2023-08-20T00:37:13;19.90;99.90
26703;DHT22;14316;51.074;3.704;2023-08-20T00:39:39;19.80;99.90
26703;DHT22;14316;51.074;3.704;2023-08-20T00:42:05;19.70;99.90
26703;DHT22;14316;51.074;3.704;2023-08-20T00:44:31;19.70;99.90
26703;DHT22;14316;51.074;3.704;2023-08-20T00:46:57;19.80;99.90
26703;DHT22;14316;51.074;3.704;2023-08-20T00:49:25;19.90;99.90
26703;DHT22;14316;51.074;3.704;2023-08-20T00:51:51;19.90;99.90
26703;DHT22;14316;51.074;3.704;2023-08-20T00:54:17;19.90;99.90
26703;DHT22;14316;51.074;3.704;2023-08-20T00:56:44;20.00;99.90
26703;DHT22;14316;51.074;3.704;2023-08-20T00:59:10;20.00;99.90
26703;DHT22;14316;51.074;3.704;2023-08-20T01:01:36;20.00;99.90
26703;DHT22;14316;51.074;3.704;2023-08-20T01:04:02;19.90;99.90
26703;DHT22;14316;51.074;3.704;2023-08-20T01:09:13;19.60;99.90
26703;DHT22;14316;51.074;3.704;2023-08-20T01:11:47;19.50;99.90
26703;DHT22;14316;51.074;3.704;2023-08-20T01:14:15;19.40;99.90
26703;DHT22;14316;51.074;3.704;2023-08-20T01:16:41;19.40;99.90
26703;DHT22;14316;51.074;3.704;2023-08-20T01:19:11;19.30;99.90
26703;DHT22;14316;51.074;3.704;2023-08-20T01:25:11;19.30;99.90
26703;DHT22;14316;51.074;3.704;2023-08-20T01:28:18;19.40;99.90
26703;DHT22;14316;51.074;3.704;2023-08-20T01:30:46;19.40;99.90
26703;DHT22;14316;51.074;3.704;2023-08-20T01:33:13;19.40;99.90
26703;DHT22;14316;51.074;3.704;2023-08-20T01:35:39;19.40;99.90
26703;DHT22;14316;51.074;3.704;2023-08-20T01:38:04;19.50;99.90
26703;DHT22;14316;51.074;3.704;2023-08-20T01:40:31;19.50;99.90
26703;DHT22;14316;51.074;3.704;2023-08-20T01:42:57;19.70;99.90
26703;DHT22;14316;51.074;3.704;2023-08-20T01:45:23;19.80;99.90
26703;DHT22;14316;51.074;3.704;2023-08-20T01:47:49;19.90;99.90
26703;DHT22;14316;51.074;3.704;2023-08-20T01:50:15;20.10;99.90
26703;DHT22;14316;51.074;3.704;2023-08-20T01:52:41;20.10;99.90
26703;DHT22;14316;51.074;3.704;2023-08-20T01:55:07;19.90;99.90
26703;DHT22;14316;51.074;3.704;2023-08-20T01:57:33;19.80;99.90
26703;DHT22;14316;51.074;3.704;2023-08-20T01:59:58;19.90;99.90
26703;DHT22;14316;51.074;3.704;2023-08-20T02:02:24;19.90;99.90
26703;DHT22;14316;51.074;3.704;2023-08-20T02:04:50;19.80;99.90
26703;DHT22;14316;51.074;3.704;2023-08-20T02:07:16;19.70;99.90
26703;DHT22;14316;51.074;3.704;2023-08-20T02:09:42;19.70;99.90
26703;DHT22;14316;51.074;3.704;2023-08-20T02:12:08;19.60;99.90
26703;DHT22;14316;51.074;3.704;2023-08-20T02:14:34;19.50;99.90
26703;DHT22;14316;51.074;3.704;2023-08-20T02:17:03;19.50;99.90
26703;DHT22;14316;51.074;3.704;2023-08-20T02:19:30;19.50;99.90
26703;DHT22;14316;51.074;3.704;2023-08-20T02:21:56;19.30;99.90
26703;DHT22;14316;51.074;3.704;2023-08-20T02:24:21;19.20;99.90
26703;DHT22;14316;51.074;3.704;2023-08-20T02:26:47;19.20;99.90
26703;DHT22;14316;51.074;3.704;2023-08-20T02:29:13;19.00;99.90
26703;DHT22;14316;51.074;3.704;2023-08-20T02:31:39;18.90;99.90
26703;DHT22;14316;51.074;3.704;2023-08-20T02:34:05;18.80;99.90
26703;DHT22;14316;51.074;3.704;2023-08-20T02:36:30;18.80;99.90
26703;DHT22;14316;51.074;3.704;2023-08-20T02:38:56;18.70;99.90
26703;DHT22;14316;51.074;3.704;2023-08-20T02:41:21;18.60;99.90
26703;DHT22;14316;51.074;3.704;2023-08-20T02:43:48;18.60;99.90
26703;DHT22;14316;51.074;3.704;2023-08-20T02:46:14;18.50;99.90
26703;DHT22;14316;51.074;3.704;2023-08-20T02:48:40;18.50;99.90
26703;DHT22;14316;51.074;3.704;2023-08-20T02:51:06;18.50;99.90
26703;DHT22;14316;51.074;3.704;2023-08-20T02:53:32;18.50;99.90
26703;DHT22;14316;51.074;3.704;2023-08-20T02:55:58;18.50;99.90
26703;DHT22;14316;51.074;3.704;2023-08-20T02:58:24;18.50;99.90
26703;DHT22;14316;51.074;3.704;2023-08-20T03:00:50;18.60;99.90
26703;DHT22;14316;51.074;3.704;2023-08-20T03:03:15;18.70;99.90
26703;DHT22;14316;51.074;3.704;2023-08-20T03:05:42;18.80;99.90
26703;DHT22;14316;51.074;3.704;2023-08-20T03:08:08;18.80;99.90
26703;DHT22;14316;51.074;3.704;2023-08-20T03:10:34;18.90;99.90
26703;DHT22;14316;51.074;3.704;2023-08-20T03:13:01;19.00;99.90
26703;DHT22;14316;51.074;3.704;2023-08-20T03:15:28;19.10;99.90
26703;DHT22;14316;51.074;3.704;2023-08-20T03:17:53;19.30;99.90
26703;DHT22;14316;51.074;3.704;2023-08-20T03:20:20;19.30;99.90
26703;DHT22;14316;51.074;3.704;2023-08-20T03:22:45;19.30;99.90
26703;DHT22;14316;51.074;3.704;2023-08-20T03:25:11;19.30;99.90
26703;DHT22;14316;51.074;3.704;2023-08-20T03:27:37;19.20;99.90
26703;DHT22;14316;51.074;3.704;2023-08-20T03:30:03;19.20;99.90
26703;DHT22;14316;51.074;3.704;2023-08-20T03:32:31;19.30;99.90
26703;DHT22;14316;51.074;3.704;2023-08-20T03:34:56;19.30;99.90
26703;DHT22;14316;51.074;3.704;2023-08-20T03:37:24;19.30;99.90
26703;DHT22;14316;51.074;3.704;2023-08-20T03:39:50;19.30;99.90
26703;DHT22;14316;51.074;3.704;2023-08-20T03:42:16;19.30;99.90
26703;DHT22;14316;51.074;3.704;2023-08-20T03:44:42;19.20;99.90
26703;DHT22;14316;51.074;3.704;2023-08-20T03:47:08;19.10;99.90
26703;DHT22;14316;51.074;3.704;2023-08-20T03:49:34;19.10;99.90
26703;DHT22;14316;51.074;3.704;2023-08-20T03:51:59;19.10;99.90
26703;DHT22;14316;51.074;3.704;2023-08-20T03:54:28;19.20;99.90
26703;DHT22;14316;51.074;3.704;2023-08-20T03:56:55;19.40;99.90
26703;DHT22;14316;51.074;3.704;2023-08-20T03:59:20;19.30;99.90
26703;DHT22;14316;51.074;3.704;2023-08-20T04:01:46;19.30;99.90
26703;DHT22;14316;51.074;3.704;2023-08-20T04:04:11;19.30;99.90
26703;DHT22;14316;51.074;3.704;2023-08-20T04:06:37;19.30;99.90
26703;DHT22;14316;51.074;3.704;2023-08-20T04:09:03;19.20;99.90
26703;DHT22;14316;51.074;3.704;2023-08-20T04:11:30;19.10;99.90
26703;DHT22;14316;51.074;3.704;2023-08-20T04:13:56;19.00;99.90
26703;DHT22;14316;51.074;3.704;2023-08-20T04:16:22;18.90;99.90
26703;DHT22;14316;51.074;3.704;2023-08-20T04:18:47;18.80;99.90
26703;DHT22;14316;51.074;3.704;2023-08-20T04:21:13;18.70;99.90
26703;DHT22;14316;51.074;3.704;2023-08-20T04:23:39;18.50;99.90
26703;DHT22;14316;51.074;3.704;2023-08-20T04:26:04;18.50;99.90
26703;DHT22;14316;51.074;3.704;2023-08-20T04:28:30;18.40;99.90
26703;DHT22;14316;51.074;3.704;2023-08-20T04:30:56;18.40;99.90
26703;DHT22;14316;51.074;3.704;2023-08-20T04:33:23;18.40;99.90
26703;DHT22;14316;51.074;3.704;2023-08-20T04:35:49;18.30;99.90
26703;DHT22;14316;51.074;3.704;2023-08-20T04:38:17;18.20;99.90
26703;DHT22;14316;51.074;3.704;2023-08-20T04:40:46;18.20;99.90
26703;DHT22;14316;51.074;3.704;2023-08-20T04:43:12;18.20;99.90
26703;DHT22;14316;51.074;3.704;2023-08-20T04:45:40;18.30;99.90
26703;DHT22;14316;51.074;3.704;2023-08-20T04:48:06;18.30;99.90
26703;DHT22;14316;51.074;3.704;2023-08-20T04:50:31;18.20;99.90
26703;DHT22;14316;51.074;3.704;2023-08-20T04:52:57;18.10;99.90
26703;DHT22;14316;51.074;3.704;2023-08-20T04:55:25;18.10;99.90
26703;DHT22;14316;51.074;3.704;2023-08-20T04:57:52;18.20;99.90
26703;DHT22;14316;51.074;3.704;2023-08-20T05:00:17;18.30;99.90
26703;DHT22;14316;51.074;3.704;2023-08-20T05:02:43;18.40;99.90
26703;DHT22;14316;51.074;3.704;2023-08-20T05:05:10;18.20;99.90
26703;DHT22;14316;51.074;3.704;2023-08-20T05:07:35;18.00;99.90
26703;DHT22;14316;51.074;3.704;2023-08-20T05:10:02;17.90;99.90
26703;DHT22;14316;51.074;3.704;2023-08-20T05:12:28;18.00;99.90
26703;DHT22;14316;51.074;3.704;2023-08-20T05:14:54;18.00;99.90
26703;DHT22;14316;51.074;3.704;2023-08-20T05:17:20;17.90;99.90
26703;DHT22;14316;51.074;3.704;2023-08-20T05:19:45;17.80;99.90
26703;DHT22;14316;51.074;3.704;2023-08-20T05:22:11;17.70;99.90
26703;DHT22;14316;51.074;3.704;2023-08-20T05:24:38;17.90;99.90
26703;DHT22;14316;51.074;3.704;2023-08-20T05:27:14;18.00;99.90
26703;DHT22;14316;51.074;3.704;2023-08-20T05:29:40;18.10;99.90
26703;DHT22;14316;51.074;3.704;2023-08-20T05:32:06;18.20;99.90
26703;DHT22;14316;51.074;3.704;2023-08-20T05:34:33;18.20;99.90
26703;DHT22;14316;51.074;3.704;2023-08-20T05:36:59;18.30;99.90
26703;DHT22;14316;51.074;3.704;2023-08-20T05:39:25;18.40;99.90
26703;DHT22;14316;51.074;3.704;2023-08-20T05:41:54;18.40;99.90
26703;DHT22;14316;51.074;3.704;2023-08-20T05:44:21;18.50;99.90
26703;DHT22;14316;51.074;3.704;2023-08-20T05:46:47;18.60;99.90
26703;DHT22;14316;51.074;3.704;2023-08-20T05:49:14;18.70;99.90
26703;DHT22;14316;51.074;3.704;2023-08-20T05:51:44;18.90;99.90
26703;DHT22;14316;51.074;3.704;2023-08-20T05:54:10;18.90;99.90
26703;DHT22;14316;51.074;3.704;2023-08-20T05:56:37;18.80;99.90
26703;DHT22;14316;51.074;3.704;2023-08-20T05:59:03;18.70;99.90
26703;DHT22;14316;51.074;3.704;2023-08-20T06:01:29;18.60;99.90
26703;DHT22;14316;51.074;3.704;2023-08-20T06:03:54;18.50;99.90
26703;DHT22;14316;51.074;3.704;2023-08-20T06:06:21;18.50;99.90
26703;DHT22;14316;51.074;3.704;2023-08-20T06:08:46;18.50;99.90
26703;DHT22;14316;51.074;3.704;2023-08-20T06:11:13;18.60;99.90
26703;DHT22;14316;51.074;3.704;2023-08-20T06:13:39;18.60;99.90
26703;DHT22;14316;51.074;3.704;2023-08-20T06:16:06;18.80;99.90
26703;DHT22;14316;51.074;3.704;2023-08-20T06:18:32;18.90;99.90
26703;DHT22;14316;51.074;3.704;2023-08-20T06:20:58;19.00;99.90
26703;DHT22;14316;51.074;3.704;2023-08-20T06:23:23;19.10;99.90
26703;DHT22;14316;51.074;3.704;2023-08-20T06:25:50;19.10;99.90
26703;DHT22;14316;51.074;3.704;2023-08-20T06:28:16;19.20;99.90
26703;DHT22;14316;51.074;3.704;2023-08-20T06:30:44;19.20;99.90
26703;DHT22;14316;51.074;3.704;2023-08-20T06:33:09;19.30;99.90
26703;DHT22;14316;51.074;3.704;2023-08-20T06:35:36;19.30;99.90
26703;DHT22;14316;51.074;3.704;2023-08-20T06:38:02;19.30;99.90
26703;DHT22;14316;51.074;3.704;2023-08-20T06:40:28;19.40;99.90
26703;DHT22;14316;51.074;3.704;2023-08-20T06:42:53;19.50;99.90
26703;DHT22;14316;51.074;3.704;2023-08-20T06:45:19;19.60;99.90
26703;DHT22;14316;51.074;3.704;2023-08-20T06:47:45;19.60;99.90
26703;DHT22;14316;51.074;3.704;2023-08-20T06:50:11;19.70;99.90
26703;DHT22;14316;51.074;3.704;2023-08-20T06:52:37;19.70;99.90
26703;DHT22;14316;51.074;3.704;2023-08-20T06:55:03;19.70;99.90
26703;DHT22;14316;51.074;3.704;2023-08-20T06:57:29;19.80;99.90
26703;DHT22;14316;51.074;3.704;2023-08-20T06:59:56;19.90;99.90
26703;DHT22;14316;51.074;3.704;2023-08-20T07:02:21;19.90;99.90
26703;DHT22;14316;51.074;3.704;2023-08-20T07:04:47;20.00;99.90
26703;DHT22;14316;51.074;3.704;2023-08-20T07:07:13;20.30;99.90
26703;DHT22;14316;51.074;3.704;2023-08-20T07:09:40;20.50;99.90
26703;DHT22;14316;51.074;3.704;2023-08-20T07:12:06;20.50;99.90
26703;DHT22;14316;51.074;3.704;2023-08-20T07:14:34;20.70;99.90
26703;DHT22;14316;51.074;3.704;2023-08-20T07:16:59;20.70;99.90
26703;DHT22;14316;51.074;3.704;2023-08-20T07:19:28;20.70;99.90
26703;DHT22;14316;51.074;3.704;2023-08-20T07:21:53;20.70;99.90
26703;DHT22;14316;51.074;3.704;2023-08-20T07:24:20;20.70;99.90
26703;DHT22;14316;51.074;3.704;2023-08-20T07:26:51;20.70;99.90
26703;DHT22;14316;51.074;3.704;2023-08-20T07:29:17;20.70;99.90
26703;DHT22;14316;51.074;3.704;2023-08-20T07:31:42;20.50;99.90
26703;DHT22;14316;51.074;3.704;2023-08-20T07:34:08;20.60;99.90
26703;DHT22;14316;51.074;3.704;2023-08-20T07:36:34;20.50;99.90
26703;DHT22;14316;51.074;3.704;2023-08-20T07:39:00;20.50;99.90
26703;DHT22;14316;51.074;3.704;2023-08-20T07:41:26;20.50;99.90
26703;DHT22;14316;51.074;3.704;2023-08-20T07:43:52;20.50;99.90
26703;DHT22;14316;51.074;3.704;2023-08-20T07:46:18;20.50;99.90
26703;DHT22;14316;51.074;3.704;2023-08-20T07:48:45;20.50;99.90
26703;DHT22;14316;51.074;3.704;2023-08-20T07:51:12;20.60;99.90
26703;DHT22;14316;51.074;3.704;2023-08-20T07:53:38;20.70;99.90
26703;DHT22;14316;51.074;3.704;2023-08-20T07:56:04;20.70;99.90
26703;DHT22;14316;51.074;3.704;2023-08-20T07:58:29;20.80;99.90
26703;DHT22;14316;51.074;3.704;2023-08-20T08:00:56;20.70;99.90
26703;DHT22;14316;51.074;3.704;2023-08-20T08:03:21;20.80;99.90
26703;DHT22;14316;51.074;3.704;2023-08-20T08:05:48;20.80;99.90
26703;DHT22;14316;51.074;3.704;2023-08-20T08:08:18;20.90;99.90
26703;DHT22;14316;51.074;3.704;2023-08-20T08:10:44;21.00;99.90
26703;DHT22;14316;51.074;3.704;2023-08-20T08:13:15;21.10;99.90
26703;DHT22;14316;51.074;3.704;2023-08-20T08:15:41;21.30;99.90
26703;DHT22;14316;51.074;3.704;2023-08-20T08:18:07;21.40;99.90
26703;DHT22;14316;51.074;3.704;2023-08-20T08:20:33;21.50;99.90
26703;DHT22;14316;51.074;3.704;2023-08-20T08:22:59;21.50;99.90
26703;DHT22;14316;51.074;3.704;2023-08-20T08:25:26;21.40;99.90
26703;DHT22;14316;51.074;3.704;2023-08-20T08:27:52;21.50;99.90
26703;DHT22;14316;51.074;3.704;2023-08-20T08:30:17;21.80;99.90
26703;DHT22;14316;51.074;3.704;2023-08-20T08:32:43;22.00;99.90
26703;DHT22;14316;51.074;3.704;2023-08-20T08:35:09;22.20;99.90
26703;DHT22;14316;51.074;3.704;2023-08-20T08:37:34;22.40;99.90
26703;DHT22;14316;51.074;3.704;2023-08-20T08:40:01;22.60;99.90
26703;DHT22;14316;51.074;3.704;2023-08-20T08:42:29;22.80;99.90
26703;DHT22;14316;51.074;3.704;2023-08-20T08:44:55;23.10;99.90
26703;DHT22;14316;51.074;3.704;2023-08-20T08:47:22;23.30;99.90
26703;DHT22;14316;51.074;3.704;2023-08-20T08:49:48;23.60;99.90
26703;DHT22;14316;51.074;3.704;2023-08-20T08:52:15;23.90;99.90
26703;DHT22;14316;51.074;3.704;2023-08-20T08:54:41;24.10;99.90
26703;DHT22;14316;51.074;3.704;2023-08-20T08:57:08;24.00;99.90
26703;DHT22;14316;51.074;3.704;2023-08-20T08:59:33;24.00;99.90
26703;DHT22;14316;51.074;3.704;2023-08-20T09:01:59;24.20;99.90
26703;DHT22;14316;51.074;3.704;2023-08-20T09:04:26;24.60;99.90
26703;DHT22;14316;51.074;3.704;2023-08-20T09:06:54;24.90;99.90
26703;DHT22;14316;51.074;3.704;2023-08-20T09:09:21;25.10;99.90
26703;DHT22;14316;51.074;3.704;2023-08-20T09:11:48;25.10;99.90
26703;DHT22;14316;51.074;3.704;2023-08-20T09:14:24;25.20;99.90
26703;DHT22;14316;51.074;3.704;2023-08-20T09:16:58;25.40;99.90
26703;DHT22;14316;51.074;3.704;2023-08-20T09:19:24;25.40;99.90
26703;DHT22;14316;51.074;3.704;2023-08-20T09:21:49;25.50;99.90
26703;DHT22;14316;51.074;3.704;2023-08-20T09:24:25;25.50;99.90
26703;DHT22;14316;51.074;3.704;2023-08-20T09:26:57;25.50;99.90
26703;DHT22;14316;51.074;3.704;2023-08-20T09:29:24;25.90;99.90
26703;DHT22;14316;51.074;3.704;2023-08-20T09:32:00;26.10;99.90
26703;DHT22;14316;51.074;3.704;2023-08-20T09:34:36;26.30;99.90
26703;DHT22;14316;51.074;3.704;2023-08-20T09:37:02;26.20;99.90
26703;DHT22;14316;51.074;3.704;2023-08-20T09:39:28;26.20;99.90
26703;DHT22;14316;51.074;3.704;2023-08-20T09:41:55;26.50;99.90
26703;DHT22;14316;51.074;3.704;2023-08-20T09:44:21;26.70;99.90
26703;DHT22;14316;51.074;3.704;2023-08-20T09:46:47;26.90;99.90
26703;DHT22;14316;51.074;3.704;2023-08-20T09:49:19;27.20;99.90
26703;DHT22;14316;51.074;3.704;2023-08-20T09:51:49;27.70;99.90
26703;DHT22;14316;51.074;3.704;2023-08-20T09:54:31;28.20;99.90
26703;DHT22;14316;51.074;3.704;2023-08-20T09:57:01;28.00;99.90
26703;DHT22;14316;51.074;3.704;2023-08-20T09:59:29;28.30;99.90
26703;DHT22;14316;51.074;3.704;2023-08-20T10:01:56;28.70;99.90
26703;DHT22;14316;51.074;3.704;2023-08-20T10:04:22;28.80;99.90
26703;DHT22;14316;51.074;3.704;2023-08-20T10:06:49;28.80;99.90
26703;DHT22;14316;51.074;3.704;2023-08-20T10:09:16;28.90;99.90
26703;DHT22;14316;51.074;3.704;2023-08-20T10:11:43;29.10;99.90
26703;DHT22;14316;51.074;3.704;2023-08-20T10:14:09;29.30;99.90
26703;DHT22;14316;51.074;3.704;2023-08-20T10:16:35;29.30;99.90
26703;DHT22;14316;51.074;3.704;2023-08-20T10:19:05;29.10;99.90
26703;DHT22;14316;51.074;3.704;2023-08-20T10:21:32;29.30;99.90
26703;DHT22;14316;51.074;3.704;2023-08-20T10:24:03;29.70;99.90
26703;DHT22;14316;51.074;3.704;2023-08-20T10:26:29;29.90;99.90
26703;DHT22;14316;51.074;3.704;2023-08-20T10:32:13;29.60;99.90
26703;DHT22;14316;51.074;3.704;2023-08-20T10:34:42;30.10;99.90
26703;DHT22;14316;51.074;3.704;2023-08-20T10:37:15;30.60;99.90
26703;DHT22;14316;51.074;3.704;2023-08-20T10:39:41;31.00;99.90
26703;DHT22;14316;51.074;3.704;2023-08-20T10:45:05;30.60;99.90
26703;DHT22;14316;51.074;3.704;2023-08-20T10:50:09;30.50;99.90
26703;DHT22;14316;51.074;3.704;2023-08-20T10:52:48;30.30;99.90
26703;DHT22;14316;51.074;3.704;2023-08-20T10:55:14;30.10;99.90
26703;DHT22;14316;51.074;3.704;2023-08-20T10:57:41;30.40;99.90
26703;DHT22;14316;51.074;3.704;2023-08-20T11:00:07;30.60;99.90
26703;DHT22;14316;51.074;3.704;2023-08-20T11:02:41;30.70;99.90
26703;DHT22;14316;51.074;3.704;2023-08-20T11:05:25;31.50;99.90
26703;DHT22;14316;51.074;3.704;2023-08-20T11:07:51;32.90;99.90
26703;DHT22;14316;51.074;3.704;2023-08-20T11:10:18;33.50;97.70
26703;DHT22;14316;51.074;3.704;2023-08-20T11:12:45;33.30;97.90
26703;DHT22;14316;51.074;3.704;2023-08-20T11:15:11;32.60;95.80
26703;DHT22;14316;51.074;3.704;2023-08-20T11:17:42;32.50;96.80
26703;DHT22;14316;51.074;3.704;2023-08-20T11:20:09;32.70;95.70
26703;DHT22;14316;51.074;3.704;2023-08-20T11:22:38;33.30;95.80
26703;DHT22;14316;51.074;3.704;2023-08-20T11:25:04;34.90;96.20
26703;DHT22;14316;51.074;3.704;2023-08-20T11:27:30;36.50;93.90
26703;DHT22;14316;51.074;3.704;2023-08-20T11:29:58;37.90;90.20
26703;DHT22;14316;51.074;3.704;2023-08-20T11:32:24;39.10;81.70
26703;DHT22;14316;51.074;3.704;2023-08-20T11:34:50;38.40;73.10
26703;DHT22;14316;51.074;3.704;2023-08-20T11:37:22;37.10;74.70
26703;DHT22;14316;51.074;3.704;2023-08-20T11:39:51;36.80;74.40
26703;DHT22;14316;51.074;3.704;2023-08-20T11:42:16;37.70;75.70
26703;DHT22;14316;51.074;3.704;2023-08-20T11:44:45;38.60;72.20
26703;DHT22;14316;51.074;3.704;2023-08-20T11:47:17;40.60;73.20
26703;DHT22;14316;51.074;3.704;2023-08-20T11:49:43;42.30;66.90
26703;DHT22;14316;51.074;3.704;2023-08-20T11:52:09;42.40;59.20
26703;DHT22;14316;51.074;3.704;2023-08-20T11:54:35;41.30;60.10
26703;DHT22;14316;51.074;3.704;2023-08-20T11:57:06;40.90;59.80
26703;DHT22;14316;51.074;3.704;2023-08-20T11:59:32;39.60;60.50
26703;DHT22;14316;51.074;3.704;2023-08-20T12:02:01;39.20;59.20
26703;DHT22;14316;51.074;3.704;2023-08-20T12:04:29;39.50;58.00
26703;DHT22;14316;51.074;3.704;2023-08-20T12:07:07;40.10;58.20
26703;DHT22;14316;51.074;3.704;2023-08-20T12:09:34;42.70;56.40
26703;DHT22;14316;51.074;3.704;2023-08-20T12:12:00;43.00;55.10
26703;DHT22;14316;51.074;3.704;2023-08-20T12:14:25;42.50;54.90
26703;DHT22;14316;51.074;3.704;2023-08-20T12:16:54;41.80;53.20
26703;DHT22;14316;51.074;3.704;2023-08-20T12:19:20;41.20;53.70
26703;DHT22;14316;51.074;3.704;2023-08-20T12:21:47;41.00;57.20
26703;DHT22;14316;51.074;3.704;2023-08-20T12:24:13;42.20;53.00
26703;DHT22;14316;51.074;3.704;2023-08-20T12:26:39;43.30;53.10
26703;DHT22;14316;51.074;3.704;2023-08-20T12:29:05;43.30;52.00
26703;DHT22;14316;51.074;3.704;2023-08-20T12:31:32;42.70;50.70
26703;DHT22;14316;51.074;3.704;2023-08-20T12:33:58;41.40;51.40
26703;DHT22;14316;51.074;3.704;2023-08-20T12:36:24;43.10;52.10
26703;DHT22;14316;51.074;3.704;2023-08-20T12:38:50;45.10;49.00
26703;DHT22;14316;51.074;3.704;2023-08-20T12:41:16;46.40;51.10
26703;DHT22;14316;51.074;3.704;2023-08-20T12:43:42;48.30;46.60
26703;DHT22;14316;51.074;3.704;2023-08-20T12:46:07;49.20;47.80
26703;DHT22;14316;51.074;3.704;2023-08-20T12:48:33;49.90;45.00
26703;DHT22;14316;51.074;3.704;2023-08-20T12:50:59;49.00;43.50
26703;DHT22;14316;51.074;3.704;2023-08-20T12:53:24;49.50;41.60
26703;DHT22;14316;51.074;3.704;2023-08-20T12:55:50;50.10;42.20
26703;DHT22;14316;51.074;3.704;2023-08-20T12:58:16;50.60;39.00
26703;DHT22;14316;51.074;3.704;2023-08-20T13:00:42;50.70;39.90
26703;DHT22;14316;51.074;3.704;2023-08-20T13:03:09;50.20;40.50
26703;DHT22;14316;51.074;3.704;2023-08-20T13:05:36;49.70;39.50
26703;DHT22;14316;51.074;3.704;2023-08-20T13:08:02;50.70;37.90
26703;DHT22;14316;51.074;3.704;2023-08-20T13:10:28;49.50;37.30
26703;DHT22;14316;51.074;3.704;2023-08-20T13:13:00;48.70;37.60
26703;DHT22;14316;51.074;3.704;2023-08-20T13:15:26;49.50;38.10
26703;DHT22;14316;51.074;3.704;2023-08-20T13:17:53;46.80;37.90
26703;DHT22;14316;51.074;3.704;2023-08-20T13:20:19;45.10;38.90
26703;DHT22;14316;51.074;3.704;2023-08-20T13:22:49;44.80;42.10
26703;DHT22;14316;51.074;3.704;2023-08-20T13:25:16;47.00;39.90
26703;DHT22;14316;51.074;3.704;2023-08-20T13:27:42;47.50;38.20
26703;DHT22;14316;51.074;3.704;2023-08-20T13:30:11;46.70;39.40
26703;DHT22;14316;51.074;3.704;2023-08-20T13:32:39;46.30;39.50
26703;DHT22;14316;51.074;3.704;2023-08-20T13:35:05;44.50;39.90
26703;DHT22;14316;51.074;3.704;2023-08-20T13:37:37;43.50;43.00
26703;DHT22;14316;51.074;3.704;2023-08-20T13:40:04;44.00;44.10
26703;DHT22;14316;51.074;3.704;2023-08-20T13:42:30;42.40;41.80
26703;DHT22;14316;51.074;3.704;2023-08-20T13:44:55;42.00;45.60
26703;DHT22;14316;51.074;3.704;2023-08-20T13:47:21;41.80;46.20
26703;DHT22;14316;51.074;3.704;2023-08-20T13:49:47;40.70;45.70
26703;DHT22;14316;51.074;3.704;2023-08-20T13:52:12;38.30;51.90
26703;DHT22;14316;51.074;3.704;2023-08-20T13:54:38;36.20;55.90
26703;DHT22;14316;51.074;3.704;2023-08-20T13:57:07;34.90;59.60
26703;DHT22;14316;51.074;3.704;2023-08-20T13:59:35;33.70;62.50
26703;DHT22;14316;51.074;3.704;2023-08-20T14:02:01;32.80;66.70
26703;DHT22;14316;51.074;3.704;2023-08-20T14:04:30;32.00;67.70
26703;DHT22;14316;51.074;3.704;2023-08-20T14:20:16;31.10;71.70
26703;DHT22;14316;51.074;3.704;2023-08-20T14:22:42;31.30;78.30
26703;DHT22;14316;51.074;3.704;2023-08-20T14:25:08;32.00;77.50
26703;DHT22;14316;51.074;3.704;2023-08-20T14:27:35;32.50;76.30
26703;DHT22;14316;51.074;3.704;2023-08-20T14:30:01;34.40;72.90
26703;DHT22;14316;51.074;3.704;2023-08-20T14:32:28;36.60;66.50
26703;DHT22;14316;51.074;3.704;2023-08-20T14:34:54;38.50;63.10
26703;DHT22;14316;51.074;3.704;2023-08-20T14:37:19;39.00;59.30
26703;DHT22;14316;51.074;3.704;2023-08-20T14:39:45;39.10;60.20
26703;DHT22;14316;51.074;3.704;2023-08-20T14:42:11;39.30;59.60
26703;DHT22;14316;51.074;3.704;2023-08-20T14:44:37;39.80;60.20
26703;DHT22;14316;51.074;3.704;2023-08-20T14:47:04;40.70;56.80
26703;DHT22;14316;51.074;3.704;2023-08-20T14:49:30;41.90;55.30
26703;DHT22;14316;51.074;3.704;2023-08-20T14:51:56;42.20;55.50
26703;DHT22;14316;51.074;3.704;2023-08-20T14:54:22;41.60;54.90
26703;DHT22;14316;51.074;3.704;2023-08-20T14:56:47;41.50;53.80
26703;DHT22;14316;51.074;3.704;2023-08-20T14:59:13;41.80;54.70
26703;DHT22;14316;51.074;3.704;2023-08-20T15:01:40;41.70;55.20
26703;DHT22;14316;51.074;3.704;2023-08-20T15:04:06;42.80;53.10
26703;DHT22;14316;51.074;3.704;2023-08-20T15:06:32;42.20;53.60
26703;DHT22;14316;51.074;3.704;2023-08-20T15:08:57;41.70;54.20
26703;DHT22;14316;51.074;3.704;2023-08-20T15:11:23;41.80;53.80
26703;DHT22;14316;51.074;3.704;2023-08-20T15:13:49;42.40;52.80
26703;DHT22;14316;51.074;3.704;2023-08-20T15:16:16;42.70;51.60
26703;DHT22;14316;51.074;3.704;2023-08-20T15:18:41;43.10;52.70
26703;DHT22;14316;51.074;3.704;2023-08-20T15:21:07;43.70;51.80
26703;DHT22;14316;51.074;3.704;2023-08-20T15:23:33;43.20;50.40
26703;DHT22;14316;51.074;3.704;2023-08-20T15:25:59;42.40;50.60
26703;DHT22;14316;51.074;3.704;2023-08-20T15:28:25;42.90;51.50
26703;DHT22;14316;51.074;3.704;2023-08-20T15:30:52;42.90;48.90
26703;DHT22;14316;51.074;3.704;2023-08-20T15:33:18;42.20;50.50
26703;DHT22;14316;51.074;3.704;2023-08-20T15:35:44;41.30;50.20
26703;DHT22;14316;51.074;3.704;2023-08-20T15:38:10;41.60;50.70
26703;DHT22;14316;51.074;3.704;2023-08-20T15:40:38;42.00;50.40
26703;DHT22;14316;51.074;3.704;2023-08-20T15:43:04;42.90;48.90
26703;DHT22;14316;51.074;3.704;2023-08-20T15:45:30;42.60;49.60
26703;DHT22;14316;51.074;3.704;2023-08-20T15:47:56;42.80;50.40
26703;DHT22;14316;51.074;3.704;2023-08-20T15:50:22;42.90;49.60
26703;DHT22;14316;51.074;3.704;2023-08-20T15:52:48;43.50;48.50
26703;DHT22;14316;51.074;3.704;2023-08-20T15:55:16;44.00;48.40